Time;durP1;ratioP1;P1;durP2;ratioP2;P2;SDS_P1;SDS_P2;PMS_P1;PMS_P2;Temp;Humidity;BMP_temperature;BMP_pressure;BME280_temperature;BME280_humidity;BME280_pressure;Samples;Min_cycle;Max_cycle;Signal;HPM_P1;HPM_P2
2021/10/25 00:00:10;;;;;;;11.43;6.63;;;;;6.40;101381.00;;;;10458150;28;20202;-79
2021/10/25 00:05:12;;;;;;;17.60;6.90;;;;;6.40;101379.00;;;;10428899;28;20195;-79
2021/10/25 00:10:15;;;;;;;11.77;6.27;;;;;6.50;101379.00;;;;10451029;28;20829;-79
2021/10/25 00:15:17;;;;;;;9.93;6.00;;;;;6.50;101377.00;;;;10467149;28;20193;-79
2021/10/25 00:20:19;;;;;;;8.07;6.47;;;;;6.60;101384.00;;;;10464018;28;20198;-79
2021/10/25 00:25:21;;;;;;;9.53;6.03;;;;;6.70;101384.00;;;;10432042;28;20607;-79
2021/10/25 00:30:24;;;;;;;9.33;6.40;;;;;7.00;101373.00;;;;10432706;28;20218;-79
2021/10/25 00:35:26;;;;;;;14.20;7.20;;;;;7.20;101376.00;;;;10465671;28;20194;-79
2021/10/25 00:40:27;;;;;;;12.17;6.80;;;;;7.30;101380.00;;;;10448172;28;20193;-79
2021/10/25 00:45:29;;;;;;;12.33;6.50;;;;;7.40;101374.00;;;;10449765;28;20202;-79
2021/10/25 00:50:32;;;;;;;8.67;5.90;;;;;7.40;101372.00;;;;10464148;28;20419;-79
2021/10/25 00:55:35;;;;;;;14.47;5.90;;;;;7.40;101372.00;;;;10466036;28;20766;-79
2021/10/25 01:00:37;;;;;;;7.80;5.47;;;;;7.40;101370.00;;;;10453214;28;20292;-78
2021/10/25 01:05:40;;;;;;;9.30;5.70;;;;;7.50;101369.00;;;;10448308;28;20648;-79
2021/10/25 01:10:42;;;;;;;8.50;5.73;;;;;7.50;101362.00;;;;10457744;28;20639;-78
2021/10/25 01:15:44;;;;;;;9.53;5.77;;;;;7.50;101369.00;;;;10434065;28;20612;-79
2021/10/25 01:20:46;;;;;;;8.67;5.23;;;;;7.50;101364.00;;;;10439369;28;20292;-79
2021/10/25 01:25:51;;;;;;;9.70;5.13;;;;;7.50;101367.00;;;;10425316;28;20239;-79
2021/10/25 01:30:53;;;;;;;8.80;5.67;;;;;7.50;101370.00;;;;10426259;28;20221;-79
2021/10/25 01:35:56;;;;;;;9.33;5.77;;;;;7.60;101372.00;;;;10447866;28;20202;-79
2021/10/25 01:40:58;;;;;;;8.40;5.70;;;;;7.70;101367.00;;;;10431117;28;20724;-79
2021/10/25 01:46:00;;;;;;;8.87;5.00;;;;;7.80;101367.00;;;;10443843;28;20321;-79
2021/10/25 01:51:03;;;;;;;7.90;5.27;;;;;7.90;101368.00;;;;10391216;28;20276;-79
2021/10/25 01:56:08;;;;;;;6.70;4.30;;;;;8.00;101369.00;;;;10395495;28;20648;-79
2021/10/25 02:01:16;;;;;;;7.07;4.87;;;;;8.10;101362.00;;;;10476866;28;20209;-79
2021/10/25 02:06:19;;;;;;;7.40;4.87;;;;;8.20;101360.00;;;;10459023;28;20191;-79
2021/10/25 02:11:22;;;;;;;5.93;4.40;;;;;8.20;101359.00;;;;10388760;28;20222;-79
2021/10/25 02:16:33;;;;;;;6.83;4.40;;;;;8.30;101365.00;;;;10407548;28;20198;-79
2021/10/25 02:21:35;;;;;;;8.80;5.30;;;;;8.30;101355.00;;;;10437298;28;20837;-79
2021/10/25 02:26:37;;;;;;;6.27;4.50;;;;;8.40;101346.00;;;;10445287;28;20194;-79
2021/10/25 02:31:39;;;;;;;6.03;3.83;;;;;8.40;101337.00;;;;10445961;28;20217;-80
2021/10/25 02:36:41;;;;;;;6.87;4.00;;;;;8.40;101336.00;;;;10445408;28;20227;-80
2021/10/25 02:41:52;;;;;;;7.83;4.50;;;;;8.50;101330.00;;;;10440703;28;20198;-80
2021/10/25 02:46:55;;;;;;;10.27;4.40;;;;;8.60;101325.00;;;;10436268;28;20692;-79
2021/10/25 02:51:57;;;;;;;9.47;3.57;;;;;8.60;101317.00;;;;10426291;28;20206;-80
2021/10/25 02:57:04;;;;;;;5.13;3.47;;;;;8.70;101319.00;;;;10442111;28;20213;-80
2021/10/25 03:02:10;;;;;;;4.70;3.57;;;;;8.80;101320.00;;;;10416079;28;20213;-80
2021/10/25 03:07:12;;;;;;;9.73;4.10;;;;;8.80;101323.00;;;;10452958;28;20213;-80
2021/10/25 03:12:19;;;;;;;6.90;4.10;;;;;8.90;101315.00;;;;10428033;28;20328;-79
2021/10/25 03:17:25;;;;;;;6.97;3.73;;;;;8.90;101308.00;;;;10448452;28;20197;-80
2021/10/25 03:22:35;;;;;;;5.70;3.97;;;;;9.00;101309.00;;;;10460410;28;20664;-80
2021/10/25 03:27:38;;;;;;;11.10;4.27;;;;;9.00;101316.00;;;;10425413;28;20222;-80
2021/10/25 03:32:41;;;;;;;5.47;3.93;;;;;9.00;101310.00;;;;10438813;28;20652;-79
2021/10/25 03:38:01;;;;;;;5.47;3.90;;;;;9.00;101306.00;;;;10451041;28;20660;-80
2021/10/25 03:43:04;;;;;;;6.23;4.07;;;;;9.00;101303.00;;;;10406123;28;20204;-80
2021/10/25 03:53:18;;;;;;;6.47;3.77;;;;;9.10;101301.00;;;;10426878;28;20193;-80
2021/10/25 04:04:07;;;;;;;9.33;4.57;;;;;9.00;101312.00;;;;10467856;28;20201;-80
2021/10/25 04:31:01;;;;;;;13.13;4.80;;;;;9.00;101290.00;;;;10467084;28;20232;-80
2021/10/25 04:36:15;;;;;;;7.90;4.40;;;;;9.00;101295.00;;;;10426300;28;20252;-79
2021/10/25 04:41:23;;;;;;;8.83;4.63;;;;;9.00;101295.00;;;;10447278;28;20829;-80
2021/10/25 04:46:24;;;;;;;8.00;4.60;;;;;9.00;101288.00;;;;10464184;28;20221;-80
2021/10/25 04:51:28;;;;;;;5.37;4.03;;;;;9.00;101287.00;;;;10434414;28;20204;-79
2021/10/25 04:56:34;;;;;;;10.23;4.27;;;;;9.10;101281.00;;;;10445381;28;20202;-79
2021/10/25 05:01:36;;;;;;;6.23;3.93;;;;;9.10;101275.00;;;;10416480;28;20229;-79
2021/10/25 05:06:39;;;;;;;8.07;4.17;;;;;9.10;101273.00;;;;10465036;28;20194;-79
2021/10/25 05:11:42;;;;;;;7.00;4.13;;;;;9.20;101278.00;;;;10464768;28;20275;-79
2021/10/25 05:16:44;;;;;;;6.57;3.70;;;;;9.30;101275.00;;;;10424609;28;20193;-80
2021/10/25 05:21:47;;;;;;;5.33;3.70;;;;;9.30;101273.00;;;;10432815;28;20197;-80
2021/10/25 05:26:49;;;;;;;6.87;4.20;;;;;9.40;101275.00;;;;10432306;28;20205;-79
2021/10/25 05:31:51;;;;;;;5.07;4.07;;;;;9.40;101265.00;;;;10430191;28;21212;-79
2021/10/25 05:36:53;;;;;;;5.97;3.50;;;;;9.40;101268.00;;;;10423118;28;20202;-79
2021/10/25 05:41:55;;;;;;;5.43;4.10;;;;;9.40;101250.00;;;;10390336;28;20202;-79
2021/10/25 05:46:59;;;;;;;6.80;3.70;;;;;9.40;101253.00;;;;10453123;28;20198;-79
2021/10/25 05:52:01;;;;;;;6.90;3.40;;;;;9.40;101263.00;;;;10447929;28;20216;-79
2021/10/25 05:57:03;;;;;;;7.77;3.80;;;;;9.40;101263.00;;;;10446909;28;20304;-80
2021/10/25 06:07:28;;;;;;;4.97;3.33;;;;;9.50;101277.00;;;;10441431;28;20213;-79
2021/10/25 06:12:38;;;;;;;7.27;3.60;;;;;9.50;101266.00;;;;10427674;28;20727;-79
2021/10/25 06:17:55;;;;;;;7.53;4.13;;;;;9.60;101262.00;;;;10406302;28;20209;-80
2021/10/25 06:22:57;;;;;;;6.37;3.63;;;;;9.60;101273.00;;;;10426595;28;20193;-80
2021/10/25 06:28:03;;;;;;;5.93;3.23;;;;;9.70;101282.00;;;;10447865;28;20220;-80
2021/10/25 06:33:08;;;;;;;8.53;3.80;;;;;9.70;101281.00;;;;10429529;28;20205;-80
2021/10/25 06:38:53;;;;;;;7.57;3.73;;;;;9.80;101280.00;;;;10422904;28;20225;-80
2021/10/25 06:43:56;;;;;;;7.20;3.73;;;;;9.80;101278.00;;;;10402489;28;20232;-80
2021/10/25 06:49:01;;;;;;;7.20;3.77;;;;;9.90;101296.00;;;;10410080;28;20221;-80
2021/10/25 06:54:05;;;;;;;5.40;2.87;;;;;10.00;101293.00;;;;10451106;28;20205;-80
2021/10/25 06:59:08;;;;;;;5.07;3.73;;;;;10.00;101294.00;;;;10442947;28;20197;-80
2021/10/25 07:04:15;;;;;;;8.50;3.50;;;;;10.10;101299.00;;;;10445268;28;20193;-79
2021/10/25 07:09:19;;;;;;;5.90;3.63;;;;;10.10;101294.00;;;;10419898;28;20233;-80
2021/10/25 07:14:27;;;;;;;8.07;3.80;;;;;10.20;101302.00;;;;10417852;28;20551;-80
2021/10/25 07:19:43;;;;;;;3.73;3.10;;;;;10.20;101296.00;;;;10428872;28;20200;-80
2021/10/25 08:08:48;;;;;;;4.97;3.70;;;;;11.30;101323.00;;;;10417657;28;20224;-80
2021/10/25 08:13:35;;;;;;;5.93;3.67;;;;;11.40;101322.00;;;;10431325;28;20204;-80
2021/10/25 08:18:54;;;;;;;5.10;3.27;;;;;11.60;101317.00;;;;10440071;28;20216;-80
2021/10/25 08:23:56;;;;;;;4.10;3.40;;;;;11.70;101319.00;;;;10449400;28;20205;-80
2021/10/25 08:29:22;;;;;;;5.17;3.60;;;;;11.80;101320.00;;;;10431491;28;20225;-80
2021/10/25 08:34:37;;;;;;;4.77;3.13;;;;;12.00;101314.00;;;;10439248;28;20288;-80
2021/10/25 08:40:02;;;;;;;4.27;2.90;;;;;12.20;101308.00;;;;10451882;28;20197;-80
2021/10/25 08:45:13;;;;;;;9.37;3.40;;;;;12.30;101301.00;;;;10441042;28;20281;-80
2021/10/25 08:50:19;;;;;;;7.30;3.10;;;;;12.40;101315.00;;;;10388665;28;20225;-80
2021/10/25 08:55:21;;;;;;;5.17;3.30;;;;;12.40;101309.00;;;;10423082;28;20208;-79
2021/10/25 09:00:39;;;;;;;4.63;3.10;;;;;12.30;101305.00;;;;10438481;28;20206;-79
2021/10/25 09:06:17;;;;;;;8.57;4.17;;;;;12.60;101308.00;;;;10408439;28;20202;-80
2021/10/25 09:11:22;;;;;;;7.33;3.47;;;;;12.90;101314.00;;;;10463805;28;20229;-80
2021/10/25 09:16:44;;;;;;;7.73;3.60;;;;;13.40;101307.00;;;;10424341;28;21040;-80
2021/10/25 09:21:46;;;;;;;7.17;3.97;;;;;13.50;101307.00;;;;10428334;28;20215;-80
2021/10/25 09:26:55;;;;;;;6.83;3.97;;;;;13.50;101310.00;;;;10446880;28;20645;-81
2021/10/25 09:32:07;;;;;;;7.57;3.63;;;;;13.50;101304.00;;;;10434268;28;20245;-80
2021/10/25 09:37:25;;;;;;;7.93;4.50;;;;;13.70;101302.00;;;;10447795;28;20839;-80
2021/10/25 09:53:12;;;;;;;7.97;4.00;;;;;14.80;101291.00;;;;10419004;28;20201;-80
2021/10/25 09:58:20;;;;;;;4.50;3.53;;;;;15.30;101294.00;;;;10442321;28;20312;-80
2021/10/25 10:03:29;;;;;;;5.55;3.55;;;;;15.90;101296.00;;;;10435771;28;20219;-80
2021/10/25 10:08:42;;;;;;;6.67;3.33;;;;;15.60;101278.00;;;;10430313;28;20764;-80
2021/10/25 10:13:51;;;;;;;6.00;3.38;;;;;15.50;101278.00;;;;10406706;28;20202;-80
2021/10/25 10:19:21;;;;;;;4.33;3.63;;;;;15.40;101281.00;;;;10436075;28;20202;-80
2021/10/25 10:24:50;;;;;;;4.32;3.38;;;;;15.50;101289.00;;;;10420572;28;20201;-80
2021/10/25 10:29:57;;;;;;;5.13;2.70;;;;;15.90;101278.00;;;;10462152;28;20272;-80
2021/10/25 10:35:17;;;;;;;4.47;2.85;;;;;16.10;101286.00;;;;10415238;28;20849;-80
2021/10/25 10:40:40;;;;;;;6.43;3.17;;;;;16.30;101272.00;;;;10405597;28;20599;-80
2021/10/25 10:46:17;;;;;;;4.60;3.55;;;;;16.70;101274.00;;;;10433189;28;20289;-81
2021/10/25 10:51:26;;;;;;;4.72;2.58;;;;;16.90;101281.00;;;;10453549;28;20287;-80
2021/10/25 10:56:36;;;;;;;3.38;2.63;;;;;16.90;101287.00;;;;10444963;28;20189;-81
2021/10/25 11:01:38;;;;;;;4.45;3.00;;;;;16.70;101281.00;;;;10402192;28;20263;-80
2021/10/25 11:06:40;;;;;;;4.20;2.78;;;;;16.50;101287.00;;;;10420056;28;20209;-80
2021/10/25 11:11:46;;;;;;;6.15;3.05;;;;;16.30;101292.00;;;;10417770;28;20216;-80
2021/10/25 11:17:14;;;;;;;3.42;2.80;;;;;16.30;101281.00;;;;10460689;28;20194;-80
2021/10/25 11:22:34;;;;;;;4.90;2.80;;;;;16.40;101289.00;;;;10443783;28;20208;-80
2021/10/25 11:27:38;;;;;;;7.97;3.33;;;;;16.50;101280.00;;;;10461229;28;20205;-80
2021/10/25 11:32:43;;;;;;;6.93;3.10;;;;;16.60;101273.00;;;;10454597;28;20226;-80
2021/10/25 11:38:03;;;;;;;5.18;3.28;;;;;16.60;101280.00;;;;10428260;28;20282;-80
2021/10/25 11:43:04;;;;;;;6.10;3.20;;;;;16.60;101279.00;;;;10436118;28;20274;-80
2021/10/25 11:48:07;;;;;;;6.60;3.53;;;;;16.80;101272.00;;;;10433387;28;20205;-80
2021/10/25 11:53:09;;;;;;;6.18;3.53;;;;;17.20;101265.00;;;;10422867;28;20194;-80
2021/10/25 11:58:14;;;;;;;6.32;3.85;;;;;17.90;101254.00;;;;10447699;28;20197;-80
2021/10/25 12:03:19;;;;;;;6.97;4.47;;;;;18.50;101261.00;;;;10442097;28;20251;-80
2021/10/25 12:08:22;;;;;;;9.57;4.32;;;;;18.50;101275.00;;;;10399975;28;20218;-80
2021/10/25 12:13:25;;;;;;;6.72;4.07;;;;;18.30;101265.00;;;;10450413;28;20201;-80
2021/10/25 12:18:27;;;;;;;5.05;3.63;;;;;18.10;101256.00;;;;10442105;28;20198;-80
2021/10/25 12:23:29;;;;;;;5.80;4.03;;;;;18.00;101250.00;;;;10442596;28;20201;-80
2021/10/25 12:28:35;;;;;;;3.90;3.00;;;;;18.50;101247.00;;;;10480169;28;20221;-81
2021/10/25 12:33:39;;;;;;;5.40;2.80;;;;;18.90;101236.00;;;;10461415;28;20201;-80
2021/10/25 12:38:46;;;;;;;4.03;3.00;;;;;18.90;101227.00;;;;10451600;28;20198;-80
2021/10/25 12:43:54;;;;;;;5.47;2.95;;;;;18.30;101239.00;;;;10480865;28;20717;-80
2021/10/25 12:48:56;;;;;;;4.47;2.60;;;;;17.80;101239.00;;;;10473769;28;20236;-80
2021/10/25 12:54:06;;;;;;;4.10;2.55;;;;;17.70;101230.00;;;;10462913;28;20205;-80
2021/10/25 12:59:11;;;;;;;4.72;2.88;;;;;18.00;101239.00;;;;10435501;28;20194;-80
2021/10/25 13:04:13;;;;;;;6.45;3.13;;;;;17.70;101235.00;;;;10436489;28;20206;-81
2021/10/25 13:09:15;;;;;;;5.35;3.60;;;;;17.70;101231.00;;;;10447531;28;20303;-80
2021/10/25 13:14:17;;;;;;;6.00;3.63;;;;;17.70;101234.00;;;;10436121;28;20199;-80
2021/10/25 13:19:20;;;;;;;6.25;3.95;;;;;17.50;101231.00;;;;10424610;28;20676;-80
2021/10/25 13:24:22;;;;;;;8.30;4.45;;;;;17.30;101228.00;;;;10409417;28;20743;-80
2021/10/25 13:29:24;;;;;;;8.93;5.32;;;;;16.90;101218.00;;;;10435893;28;20225;-79
2021/10/25 13:34:26;;;;;;;7.18;4.75;;;;;17.10;101204.00;;;;10428492;28;20206;-79
2021/10/25 13:39:28;;;;;;;7.65;4.80;;;;;17.20;101209.00;;;;10438981;28;20202;-79
2021/10/25 13:44:30;;;;;;;8.55;5.63;;;;;17.00;101201.00;;;;10480274;28;20201;-79
2021/10/25 13:49:34;;;;;;;10.88;4.93;;;;;16.80;101206.00;;;;10439710;28;20226;-79
2021/10/25 13:54:37;;;;;;;10.95;4.35;;;;;16.80;101193.00;;;;10450663;28;20193;-80
2021/10/25 13:59:39;;;;;;;16.17;5.30;;;;;16.90;101184.00;;;;10503811;28;20208;-79
2021/10/25 14:04:48;;;;;;;9.75;5.63;;;;;16.80;101194.00;;;;10450685;28;20205;-80
2021/10/25 14:09:54;;;;;;;9.00;5.72;;;;;16.70;101191.00;;;;10446271;28;20237;-80
2021/10/25 14:15:03;;;;;;;9.98;5.20;;;;;16.60;101181.00;;;;10421542;28;20202;-79
2021/10/25 14:20:06;;;;;;;8.80;5.07;;;;;16.40;101191.00;;;;10456205;28;20232;-80
2021/10/25 14:25:10;;;;;;;11.35;6.30;;;;;16.20;101186.00;;;;10417264;28;20202;-80
2021/10/25 14:30:13;;;;;;;11.15;6.88;;;;;16.10;101195.00;;;;10437069;28;20240;-80
2021/10/25 14:35:14;;;;;;;9.10;6.30;;;;;15.80;101201.00;;;;10454778;28;20198;-79
2021/10/25 14:40:48;;;;;;;8.77;6.65;;;;;15.40;101205.00;;;;10421086;28;20197;-80
2021/10/25 14:45:56;;;;;;;9.35;6.85;;;;;15.10;101199.00;;;;10426056;28;20687;-80
2021/10/25 14:56:20;;;;;;;9.70;6.32;;;;;14.70;101197.00;;;;10457106;28;20209;-79
2021/10/25 15:01:22;;;;;;;11.18;7.32;;;;;14.60;101202.00;;;;10440314;28;20201;-80
2021/10/25 15:06:25;;;;;;;10.80;7.90;;;;;14.40;101204.00;;;;10411845;28;20290;-80
2021/10/25 15:11:27;;;;;;;13.23;8.83;;;;;14.30;101191.00;;;;10445836;28;20218;-82
2021/10/25 15:16:29;;;;;;;14.93;10.00;;;;;14.20;101193.00;;;;10418370;28;20201;-80
2021/10/25 15:21:32;;;;;;;16.87;12.07;;;;;14.10;101190.00;;;;10417877;28;20202;-81
2021/10/25 15:26:36;;;;;;;14.60;10.90;;;;;14.00;101193.00;;;;10415630;28;20206;-80
2021/10/25 15:31:38;;;;;;;16.00;11.03;;;;;14.00;101199.00;;;;10434843;28;20595;-80
2021/10/25 15:36:40;;;;;;;14.63;10.50;;;;;13.80;101203.00;;;;10382828;28;20202;-80
2021/10/25 15:41:42;;;;;;;13.37;10.50;;;;;13.70;101192.00;;;;10423336;28;20190;-80
2021/10/25 15:46:44;;;;;;;15.10;10.93;;;;;13.50;101199.00;;;;10449327;28;20215;-81
2021/10/25 15:51:49;;;;;;;11.40;8.47;;;;;13.40;101189.00;;;;10482755;28;20205;-80
2021/10/25 15:56:52;;;;;;;18.47;10.47;;;;;13.30;101196.00;;;;10460869;28;20203;-81
2021/10/25 16:01:54;;;;;;;11.33;8.83;;;;;13.20;101201.00;;;;10391240;28;20206;-81
2021/10/25 16:07:14;;;;;;;14.23;9.07;;;;;13.10;101184.00;;;;10414866;28;20201;-80
2021/10/25 16:12:49;;;;;;;12.57;8.20;;;;;13.00;101200.00;;;;10421020;28;20229;-80
2021/10/25 16:18:25;;;;;;;12.10;8.57;;;;;12.90;101206.00;;;;10445728;28;20221;-81
2021/10/25 16:24:01;;;;;;;12.13;9.63;;;;;12.80;101207.00;;;;10380831;28;20205;-80
2021/10/25 16:30:35;;;;;;;17.33;10.70;;;;;12.60;101195.00;;;;10395894;28;20964;-80
2021/10/25 16:37:34;;;;;;;20.30;13.90;;;;;12.40;101199.00;;;;10416614;28;20313;-78
2021/10/25 16:48:42;;;;;;;23.03;16.60;;;;;12.20;101187.00;;;;10163856;24;20258;-78
2021/10/25 17:10:00;;;;;;;23.67;15.73;;;;;12.00;101193.00;;;;9840226;29;20228;-77
2021/10/25 17:15:02;;;;;;;22.97;15.33;;;;;11.90;101197.00;;;;9821101;29;22426;-77
2021/10/25 17:20:05;;;;;;;23.87;15.90;;;;;11.90;101206.00;;;;9849359;29;20216;-77
2021/10/25 17:25:07;;;;;;;22.47;14.77;;;;;11.90;101212.00;;;;9831719;29;20262;-77
2021/10/25 17:30:10;;;;;;;20.97;14.33;;;;;11.90;101221.00;;;;9851221;29;20267;-77
2021/10/25 17:35:12;;;;;;;23.47;14.50;;;;;11.90;101219.00;;;;9868679;29;20273;-77
2021/10/25 17:40:17;;;;;;;20.47;15.30;;;;;11.90;101234.00;;;;9842954;29;20212;-76
2021/10/25 17:45:20;;;;;;;22.37;17.13;;;;;11.90;101232.00;;;;9822543;29;20225;-77
2021/10/25 17:50:22;;;;;;;20.23;15.73;;;;;11.90;101232.00;;;;9809225;29;20224;-76
2021/10/25 17:55:25;;;;;;;22.40;16.73;;;;;11.80;101225.00;;;;9849175;29;20216;-77
2021/10/25 18:00:27;;;;;;;23.50;15.80;;;;;11.60;101233.00;;;;9848980;29;20236;-77
2021/10/25 18:05:29;;;;;;;21.57;16.50;;;;;11.50;101224.00;;;;9847383;29;20221;-77
2021/10/25 18:10:31;;;;;;;24.73;17.50;;;;;11.40;101215.00;;;;9860444;29;20235;-77
2021/10/25 18:15:35;;;;;;;24.33;18.20;;;;;11.40;101225.00;;;;9832287;29;20291;-76
2021/10/25 18:20:39;;;;;;;26.00;18.47;;;;;11.40;101237.00;;;;9842605;29;20950;-76
2021/10/25 18:25:41;;;;;;;25.43;18.07;;;;;11.30;101236.00;;;;9790743;30;20299;-76
2021/10/25 18:30:46;;;;;;;27.07;18.27;;;;;11.30;101242.00;;;;9825988;29;20330;-76
2021/10/25 18:35:49;;;;;;;22.87;16.37;;;;;11.30;101251.00;;;;9797595;29;20554;-76
2021/10/25 18:40:51;;;;;;;24.10;17.83;;;;;11.30;101248.00;;;;9803115;29;20215;-77
2021/10/25 18:45:56;;;;;;;25.97;17.50;;;;;11.30;101240.00;;;;9825255;29;20722;-77
2021/10/25 18:51:00;;;;;;;24.53;17.60;;;;;11.30;101245.00;;;;9814093;29;20231;-76
2021/10/25 18:56:03;;;;;;;27.67;17.70;;;;;11.30;101242.00;;;;9827838;29;20244;-77
2021/10/25 19:01:05;;;;;;;25.43;17.77;;;;;11.30;101250.00;;;;9818589;29;20251;-77
2021/10/25 19:06:08;;;;;;;23.93;16.87;;;;;11.40;101259.00;;;;9830290;29;20216;-76
2021/10/25 19:11:11;;;;;;;23.57;17.80;;;;;11.40;101260.00;;;;9809960;29;20232;-77
2021/10/25 19:16:12;;;;;;;23.63;16.87;;;;;11.40;101263.00;;;;9799332;30;20228;-77
2021/10/25 19:21:15;;;;;;;24.60;15.97;;;;;11.40;101268.00;;;;9830559;30;20213;-77
2021/10/25 19:26:16;;;;;;;24.60;17.10;;;;;11.40;101274.00;;;;9809275;30;20613;-76
2021/10/25 19:31:18;;;;;;;24.90;16.20;;;;;11.40;101267.00;;;;9849343;29;20281;-77
2021/10/25 19:36:20;;;;;;;23.73;15.37;;;;;11.40;101275.00;;;;9831320;29;20212;-77
2021/10/25 19:41:23;;;;;;;21.83;17.07;;;;;11.40;101282.00;;;;9839907;30;20209;-76
2021/10/25 19:46:25;;;;;;;22.60;19.23;;;;;11.50;101283.00;;;;9854223;29;20919;-77
2021/10/25 19:51:28;;;;;;;27.33;19.17;;;;;11.60;101283.00;;;;9809150;29;20228;-76
2021/10/25 19:56:30;;;;;;;20.70;17.00;;;;;11.60;101282.00;;;;9843925;29;20215;-76
2021/10/25 20:01:33;;;;;;;22.37;16.67;;;;;11.50;101289.00;;;;9844831;29;20274;-75
2021/10/25 20:06:45;;;;;;;23.83;17.77;;;;;11.60;101300.00;;;;9862712;29;20204;-76
2021/10/25 20:11:47;;;;;;;24.97;18.00;;;;;11.60;101292.00;;;;9846992;29;20274;-76
2021/10/25 20:16:50;;;;;;;24.53;16.90;;;;;11.50;101292.00;;;;9837087;29;20239;-76
2021/10/25 20:21:52;;;;;;;23.87;16.47;;;;;11.30;101286.00;;;;9844192;30;20213;-76
2021/10/25 20:26:55;;;;;;;25.00;17.57;;;;;11.20;101284.00;;;;9797865;29;20266;-76
2021/10/25 20:31:57;;;;;;;26.07;17.03;;;;;11.10;101285.00;;;;9832769;30;20233;-76
2021/10/25 20:36:59;;;;;;;27.90;18.23;;;;;11.10;101291.00;;;;9832593;29;20215;-76
2021/10/25 20:42:01;;;;;;;29.87;18.27;;;;;11.00;101297.00;;;;9819888;29;20739;-77
2021/10/25 20:47:03;;;;;;;28.40;17.80;;;;;11.00;101292.00;;;;9851585;29;20282;-76
2021/10/25 20:52:06;;;;;;;29.60;18.77;;;;;10.90;101294.00;;;;9815133;30;20301;-76
2021/10/25 20:57:10;;;;;;;31.00;19.53;;;;;10.80;101292.00;;;;9806698;29;20197;-76
2021/10/25 21:02:13;;;;;;;29.17;18.53;;;;;10.70;101306.00;;;;9837609;30;20336;-76
2021/10/25 21:07:17;;;;;;;30.63;18.63;;;;;10.70;101301.00;;;;9824906;29;20209;-76
2021/10/25 21:12:19;;;;;;;29.53;18.97;;;;;10.60;101306.00;;;;9827514;29;20278;-76
2021/10/25 21:17:21;;;;;;;28.07;20.33;;;;;10.60;101314.00;;;;9827848;29;20327;-76
2021/10/25 21:22:23;;;;;;;31.90;21.27;;;;;10.50;101302.00;;;;9846655;29;20220;-76
2021/10/25 21:27:25;;;;;;;32.37;21.47;;;;;10.50;101303.00;;;;9850150;29;20213;-76
2021/10/25 21:32:27;;;;;;;32.97;21.17;;;;;10.50;101306.00;;;;9835020;29;20697;-76
2021/10/25 21:37:29;;;;;;;32.20;21.43;;;;;10.60;101316.00;;;;9842693;29;20270;-77
2021/10/25 21:42:31;;;;;;;37.20;23.10;;;;;10.60;101306.00;;;;9816950;29;20895;-76
2021/10/25 21:47:33;;;;;;;40.30;23.43;;;;;10.60;101324.00;;;;9817425;29;20310;-76
2021/10/25 21:52:35;;;;;;;40.60;25.33;;;;;10.70;101322.00;;;;9831246;29;20228;-76
2021/10/25 21:57:37;;;;;;;41.10;25.20;;;;;10.80;101317.00;;;;9843881;29;20216;-76
2021/10/25 22:02:39;;;;;;;39.50;25.17;;;;;10.80;101311.00;;;;9845666;29;20236;-77
2021/10/25 22:07:41;;;;;;;39.73;24.17;;;;;10.80;101306.00;;;;9839645;29;20208;-77
2021/10/25 22:12:44;;;;;;;42.93;22.70;;;;;10.80;101306.00;;;;9814995;29;20643;-76
2021/10/25 22:17:48;;;;;;;40.07;24.47;;;;;10.90;101317.00;;;;9816388;29;20200;-76
2021/10/25 22:22:51;;;;;;;35.50;23.77;;;;;10.90;101311.00;;;;9844847;29;20204;-76
2021/10/25 22:27:53;;;;;;;34.37;22.80;;;;;10.90;101321.00;;;;9816542;29;20732;-76
2021/10/25 22:32:56;;;;;;;35.80;22.50;;;;;11.00;101336.00;;;;9808856;30;20256;-76
2021/10/25 22:37:58;;;;;;;38.13;23.83;;;;;11.10;101327.00;;;;9826755;29;20212;-76
2021/10/25 22:42:59;;;;;;;34.37;23.60;;;;;11.10;101324.00;;;;9795668;29;20205;-77
2021/10/25 22:48:01;;;;;;;36.50;22.30;;;;;11.20;101328.00;;;;9816641;29;20289;-76
2021/10/25 22:53:03;;;;;;;37.10;21.47;;;;;11.30;101326.00;;;;9824504;29;20745;-77
2021/10/25 22:58:11;;;;;;;37.30;22.90;;;;;11.30;101330.00;;;;9830714;30;20240;-77
2021/10/25 23:03:13;;;;;;;32.43;21.23;;;;;11.30;101328.00;;;;9810590;29;20235;-76
2021/10/25 23:08:15;;;;;;;31.67;20.57;;;;;11.30;101335.00;;;;9830531;29;20258;-77
2021/10/25 23:13:16;;;;;;;35.57;19.57;;;;;11.40;101339.00;;;;9827940;29;20232;-76
2021/10/25 23:18:18;;;;;;;31.63;19.73;;;;;11.30;101345.00;;;;9820829;29;20629;-76
2021/10/25 23:23:20;;;;;;;32.77;20.20;;;;;11.30;101338.00;;;;9846323;29;20214;-76
2021/10/25 23:28:22;;;;;;;32.63;18.80;;;;;11.10;101349.00;;;;9814170;29;20238;-76
2021/10/25 23:33:24;;;;;;;29.47;18.33;;;;;11.00;101355.00;;;;9825086;29;20232;-77
2021/10/25 23:38:26;;;;;;;37.87;19.17;;;;;11.00;101346.00;;;;9839813;29;20231;-76
2021/10/25 23:43:28;;;;;;;28.50;18.43;;;;;11.00;101346.00;;;;9827762;29;20252;-76
2021/10/25 23:48:31;;;;;;;32.53;18.53;;;;;11.00;101349.00;;;;9847124;29;20270;-76
2021/10/25 23:53:33;;;;;;;30.90;19.83;;;;;11.10;101362.00;;;;9820852;29;20227;-76
2021/10/25 23:58:36;;;;;;;32.90;19.43;;;;;11.00;101355.00;;;;9850373;29;20219;-76
